createdAt,value
2022-10-18T00:00:54.977Z,14.23
2022-10-18T00:03:37.524Z,14.21
2022-10-18T00:06:06.335Z,14.22
2022-10-18T00:08:34.028Z,14.29
2022-10-18T00:11:01.914Z,14.29
2022-10-18T00:13:29.785Z,14.29
2022-10-18T00:16:01.649Z,14.26
2022-10-18T00:18:30.030Z,14.22
2022-10-18T00:20:58.799Z,14.28
2022-10-18T00:23:27.236Z,14.29
2022-10-18T00:26:17.918Z,14.30
2022-10-18T00:28:46.928Z,14.33
2022-10-18T00:31:26.946Z,14.35
2022-10-18T00:33:57.469Z,14.33
2022-10-18T00:36:26.590Z,14.37
2022-10-18T00:38:54.363Z,14.37
2022-10-18T00:41:26.181Z,14.38
2022-10-18T00:44:04.694Z,14.44
2022-10-18T00:46:44.555Z,14.46
2022-10-18T00:49:16.511Z,14.48
2022-10-18T00:51:48.593Z,14.50
2022-10-18T00:54:18.213Z,14.53
2022-10-18T00:56:46.382Z,14.54
2022-10-18T00:59:16.810Z,14.56
2022-10-18T01:01:47.855Z,14.59
2022-10-18T01:04:17.454Z,14.59
2022-10-18T01:07:03.702Z,14.58
2022-10-18T01:09:43.504Z,14.62
2022-10-18T01:12:49.754Z,14.65
2022-10-18T01:15:26.707Z,14.68
2022-10-18T01:18:15.367Z,14.66
2022-10-18T01:20:52.351Z,14.70
2022-10-18T01:23:53.480Z,14.73
2022-10-18T01:26:33.192Z,14.71
2022-10-18T01:29:25.595Z,14.69
2022-10-18T01:32:07.442Z,14.69
2022-10-18T01:34:37.860Z,14.68
2022-10-18T01:37:11.474Z,14.68
2022-10-18T01:39:44.347Z,14.64
2022-10-18T01:42:18.276Z,14.63
2022-10-18T01:44:48.400Z,14.65
2022-10-18T01:47:17.901Z,14.67
2022-10-18T01:49:45.872Z,14.68
2022-10-18T01:52:17.531Z,14.68
2022-10-18T01:54:51.149Z,14.69
2022-10-18T01:57:37.081Z,14.73
2022-10-18T02:00:14.669Z,14.77
2022-10-18T02:02:48.719Z,14.76
2022-10-18T02:05:29.894Z,14.75
2022-10-18T02:08:42.485Z,14.76
2022-10-18T02:11:14.044Z,14.78
2022-10-18T02:14:00.565Z,14.82
2022-10-18T02:16:38.030Z,14.82
2022-10-18T02:19:10.707Z,14.81
2022-10-18T02:21:42.096Z,14.84
2022-10-18T02:24:12.878Z,14.88
2022-10-18T02:26:40.709Z,14.92
2022-10-18T02:29:09.154Z,14.92
2022-10-18T02:31:43.870Z,14.93
2022-10-18T02:34:27.210Z,14.94
2022-10-18T02:37:04.810Z,14.94
2022-10-18T02:39:46.086Z,14.96
2022-10-18T02:42:15.067Z,14.98
2022-10-18T02:44:43.043Z,14.96
2022-10-18T02:47:12.255Z,14.98
2022-10-18T02:49:40.125Z,14.98
2022-10-18T02:52:07.842Z,14.98
2022-10-18T02:54:35.669Z,14.97
2022-10-18T02:57:03.438Z,14.94
2022-10-18T02:59:31.200Z,14.94
2022-10-18T03:01:58.972Z,14.96
2022-10-18T03:06:59.280Z,14.95
2022-10-18T03:09:27.176Z,14.91
2022-10-18T03:11:54.878Z,14.89
2022-10-18T03:14:22.668Z,14.91
2022-10-18T03:16:50.419Z,14.93
2022-10-18T03:19:18.165Z,14.94
2022-10-18T03:21:45.931Z,14.90
2022-10-18T03:24:13.704Z,14.87
2022-10-18T03:26:41.412Z,14.88
2022-10-18T03:29:10.869Z,14.87
2022-10-18T03:31:39.058Z,14.87
2022-10-18T03:34:06.923Z,14.85
2022-10-18T03:36:34.899Z,14.84
2022-10-18T03:39:02.602Z,14.83
2022-10-18T03:41:30.279Z,14.80
2022-10-18T03:43:58.000Z,14.80
2022-10-18T03:46:25.972Z,14.78
2022-10-18T03:48:53.743Z,14.77
2022-10-18T03:51:21.450Z,14.79
2022-10-18T03:53:49.281Z,14.80
2022-10-18T03:56:16.984Z,14.82
2022-10-18T03:58:44.692Z,14.81
2022-10-18T04:01:12.599Z,14.79
2022-10-18T04:03:40.557Z,14.80
2022-10-18T04:06:10.018Z,14.83
2022-10-18T04:08:37.840Z,14.85
2022-10-18T04:11:09.910Z,14.87
2022-10-18T04:13:37.623Z,14.87
2022-10-18T04:16:05.440Z,14.83
2022-10-18T04:18:33.219Z,14.81
2022-10-18T04:21:00.976Z,14.81
2022-10-18T04:23:28.949Z,14.80
2022-10-18T04:25:56.621Z,14.82
2022-10-18T04:28:24.494Z,14.80
2022-10-18T04:30:53.260Z,14.81
2022-10-18T04:33:21.459Z,14.84
2022-10-18T04:35:52.604Z,14.84
2022-10-18T04:38:20.353Z,14.85
2022-10-18T04:40:48.142Z,14.86
2022-10-18T04:43:16.026Z,14.84
2022-10-18T04:45:48.285Z,14.84
2022-10-18T04:48:16.054Z,14.83
2022-10-18T04:50:44.449Z,14.84
2022-10-18T04:53:16.195Z,14.86
2022-10-18T04:55:45.688Z,14.88
2022-10-18T04:58:13.678Z,14.87
2022-10-18T05:00:42.016Z,14.85
2022-10-18T05:03:12.758Z,14.87
2022-10-18T05:06:00.324Z,14.89
2022-10-18T05:08:28.804Z,14.88
2022-10-18T05:10:56.541Z,14.86
2022-10-18T05:13:24.438Z,14.88
2022-10-18T05:15:52.377Z,14.88
2022-10-18T05:18:20.286Z,14.89
2022-10-18T05:20:48.053Z,14.87
2022-10-18T05:23:15.749Z,14.84
2022-10-18T05:25:44.131Z,14.84
2022-10-18T05:28:34.522Z,14.84
2022-10-18T05:31:07.358Z,14.87
2022-10-18T05:33:35.920Z,14.88
2022-10-18T05:36:04.479Z,14.88
2022-10-18T05:38:32.319Z,14.90
2022-10-18T05:41:04.489Z,14.90
2022-10-18T05:43:32.190Z,14.94
2022-10-18T05:46:00.026Z,14.96
2022-10-18T05:48:27.743Z,14.96
2022-10-18T05:50:59.350Z,14.96
2022-10-18T05:53:37.066Z,14.96
2022-10-18T05:56:07.116Z,14.99
2022-10-18T05:58:35.571Z,15.00
2022-10-18T06:01:05.484Z,15.03
2022-10-18T06:03:33.750Z,15.05
2022-10-18T06:06:07.356Z,15.05
2022-10-18T06:08:36.214Z,15.08
2022-10-18T06:11:08.471Z,15.10
2022-10-18T06:13:41.249Z,15.17
2022-10-18T06:16:09.811Z,15.24
2022-10-18T06:18:38.094Z,15.25
2022-10-18T06:21:07.092Z,15.27
2022-10-18T06:23:35.441Z,15.28
2022-10-18T06:26:08.454Z,15.31
2022-10-18T06:28:37.308Z,15.32
2022-10-18T06:31:06.095Z,15.36
2022-10-18T06:33:36.102Z,15.37
2022-10-18T06:36:10.543Z,15.36
2022-10-18T06:38:38.267Z,15.38
2022-10-18T06:41:07.443Z,15.41
2022-10-18T06:43:35.788Z,15.46
2022-10-18T06:46:06.918Z,15.48
2022-10-18T06:48:40.051Z,15.51
2022-10-18T06:51:09.042Z,15.50
2022-10-18T06:53:44.040Z,15.53
2022-10-18T06:56:21.257Z,15.57
2022-10-18T06:58:49.086Z,15.62
2022-10-18T07:01:18.501Z,15.64
2022-10-18T07:03:47.938Z,15.68
2022-10-18T07:06:18.448Z,15.75
2022-10-18T07:08:48.083Z,15.77
2022-10-18T07:11:18.707Z,15.78
2022-10-18T07:13:46.489Z,15.86
2022-10-18T07:16:18.410Z,15.91
2022-10-18T07:18:51.545Z,15.96
2022-10-18T07:21:22.177Z,15.96
2022-10-18T07:23:51.479Z,15.98
2022-10-18T07:26:20.811Z,16.03
2022-10-18T07:28:51.851Z,16.11
2022-10-18T07:31:20.106Z,16.14
2022-10-18T07:33:47.876Z,16.14
2022-10-18T07:36:16.082Z,16.17
2022-10-18T07:38:44.891Z,16.21
2022-10-18T07:41:13.944Z,16.23
2022-10-18T07:43:43.759Z,16.27
2022-10-18T07:46:12.559Z,16.32
2022-10-18T07:48:40.993Z,16.37
2022-10-18T07:51:09.601Z,16.41
2022-10-18T07:53:37.881Z,16.42
2022-10-18T07:56:11.538Z,16.43
2022-10-18T07:58:39.482Z,16.48
2022-10-18T08:01:08.940Z,16.56
2022-10-18T08:03:38.794Z,16.63
2022-10-18T08:06:09.671Z,16.67
2022-10-18T08:08:39.336Z,16.69
2022-10-18T08:11:15.012Z,16.65
2022-10-18T08:13:43.277Z,16.64
2022-10-18T08:16:17.538Z,16.63
2022-10-18T08:18:45.781Z,16.67
2022-10-18T08:21:15.215Z,16.71
2022-10-18T08:23:43.694Z,16.72
2022-10-18T08:26:14.483Z,16.76
2022-10-18T08:28:49.096Z,16.75
2022-10-18T08:31:26.322Z,16.77
2022-10-18T08:33:57.176Z,16.84
2022-10-18T08:36:25.234Z,16.90
2022-10-18T08:38:52.928Z,16.98
2022-10-18T08:41:26.948Z,17.09
2022-10-18T08:44:16.170Z,17.17
2022-10-18T08:47:04.498Z,17.30
2022-10-18T08:49:46.770Z,17.51
2022-10-18T08:52:29.588Z,17.70
2022-10-18T08:55:11.941Z,17.85
2022-10-18T08:57:39.878Z,17.94
2022-10-18T09:00:19.030Z,17.98
2022-10-18T09:03:00.372Z,18.04
2022-10-18T09:05:39.358Z,18.14
2022-10-18T09:08:46.816Z,18.23
2022-10-18T09:11:17.338Z,18.29
2022-10-18T09:14:04.237Z,18.39
2022-10-18T09:16:59.531Z,18.56
2022-10-18T09:19:55.931Z,19.20
2022-10-18T09:22:53.502Z,20.16
2022-10-18T09:25:45.831Z,21.28
2022-10-18T09:28:30.661Z,22.56
2022-10-18T09:31:14.096Z,23.21
2022-10-18T09:34:19.748Z,23.42
2022-10-18T09:36:51.817Z,22.90
2022-10-18T09:39:25.000Z,22.34
2022-10-18T09:42:28.287Z,22.08
2022-10-18T09:45:02.181Z,21.95
2022-10-18T09:47:37.946Z,22.12
2022-10-18T09:50:27.711Z,22.00
2022-10-18T09:53:19.705Z,21.67
2022-10-18T09:56:06.127Z,21.67
2022-10-18T09:58:44.117Z,21.55
2022-10-18T10:01:15.788Z,21.36
2022-10-18T10:03:44.067Z,21.16
2022-10-18T10:06:11.718Z,20.96
2022-10-18T10:08:47.472Z,20.83
2022-10-18T10:11:40.226Z,20.73
2022-10-18T10:14:12.668Z,20.76
2022-10-18T10:16:57.047Z,20.91
2022-10-18T10:19:24.929Z,21.21
2022-10-18T10:21:57.182Z,21.30
2022-10-18T10:24:53.142Z,21.29
2022-10-18T10:27:44.894Z,21.33
2022-10-18T10:30:34.072Z,21.37
2022-10-18T10:33:02.356Z,21.36
2022-10-18T10:35:35.470Z,21.29
2022-10-18T10:38:24.013Z,21.29
2022-10-18T10:40:52.800Z,21.33
2022-10-18T10:43:44.550Z,21.31
2022-10-18T10:46:15.218Z,21.25
2022-10-18T10:48:47.890Z,21.14
2022-10-18T10:51:31.576Z,21.08
2022-10-18T10:54:08.187Z,21.05
2022-10-18T10:56:50.091Z,21.00
2022-10-18T10:59:20.302Z,20.94
2022-10-18T11:01:50.246Z,20.85
2022-10-18T11:04:28.511Z,20.85
2022-10-18T11:07:14.558Z,20.85
2022-10-18T11:09:51.517Z,20.81
2022-10-18T11:12:28.012Z,20.67
2022-10-18T11:15:18.572Z,20.61
2022-10-18T11:18:05.070Z,20.58
2022-10-18T11:20:44.685Z,20.55
2022-10-18T11:23:14.674Z,20.51
2022-10-18T11:26:12.178Z,20.45
2022-10-18T11:29:05.335Z,20.45
2022-10-18T11:31:43.528Z,20.39
2022-10-18T11:34:45.375Z,20.30
2022-10-18T11:37:29.067Z,20.25
2022-10-18T11:40:35.659Z,20.20
2022-10-18T11:43:03.326Z,20.17
2022-10-18T11:45:56.167Z,20.16
2022-10-18T11:48:42.246Z,20.20
2022-10-18T11:51:38.576Z,20.21
2022-10-18T11:54:41.954Z,20.26
2022-10-18T11:57:43.861Z,20.31
2022-10-18T12:00:39.433Z,20.29
2022-10-18T12:03:20.098Z,20.31
2022-10-18T12:05:50.394Z,20.29
2022-10-18T12:08:39.243Z,20.27
2022-10-18T12:11:14.584Z,20.30
2022-10-18T12:13:50.179Z,20.33
2022-10-18T12:16:38.908Z,20.39
2022-10-18T12:19:36.926Z,20.45
2022-10-18T12:22:32.924Z,20.53
2022-10-18T12:25:01.949Z,20.58
2022-10-18T12:27:44.442Z,20.54
2022-10-18T12:30:40.967Z,20.48
2022-10-18T12:33:27.623Z,20.44
2022-10-18T12:36:14.183Z,20.43
2022-10-18T12:38:45.049Z,20.38
2022-10-18T12:41:31.172Z,20.30
2022-10-18T12:44:47.232Z,20.33
2022-10-18T12:47:24.281Z,20.38
2022-10-18T12:50:02.350Z,20.36
2022-10-18T12:52:34.628Z,20.33
2022-10-18T12:55:17.648Z,20.27
2022-10-18T12:57:51.753Z,20.16
2022-10-18T13:00:31.487Z,20.12
2022-10-18T13:03:16.614Z,20.08
2022-10-18T13:05:55.985Z,19.97
2022-10-18T13:08:30.418Z,19.95
2022-10-18T13:11:01.353Z,19.94
2022-10-18T13:13:52.899Z,19.98
2022-10-18T13:16:20.602Z,19.97
2022-10-18T13:19:28.521Z,19.93
2022-10-18T13:22:16.136Z,19.90
2022-10-18T13:25:19.414Z,19.86
2022-10-18T13:28:05.085Z,19.85
2022-10-18T13:30:55.119Z,19.87
2022-10-18T13:33:36.562Z,19.85
2022-10-18T13:36:21.629Z,19.78
2022-10-18T13:38:55.660Z,19.76
2022-10-18T13:44:38.325Z,19.72
2022-10-18T13:47:06.922Z,19.74
2022-10-18T13:49:43.619Z,19.74
2022-10-18T13:52:25.694Z,19.73
2022-10-18T13:55:14.788Z,19.73
2022-10-18T13:57:51.540Z,19.77
2022-10-18T14:00:38.167Z,19.78
2022-10-18T14:06:33.116Z,19.76
2022-10-18T14:09:13.921Z,19.75
2022-10-18T14:12:07.184Z,19.77
2022-10-18T14:14:42.875Z,19.78
2022-10-18T14:17:28.879Z,19.80
2022-10-18T14:20:24.793Z,19.82
2022-10-18T14:23:20.460Z,19.81
2022-10-18T14:25:48.533Z,19.78
2022-10-18T14:28:21.745Z,19.81
2022-10-18T14:30:58.001Z,19.82
2022-10-18T14:33:25.810Z,19.77
2022-10-18T14:36:03.678Z,19.76
2022-10-18T14:38:31.750Z,19.76
2022-10-18T14:41:16.916Z,19.74
2022-10-18T14:43:46.626Z,19.68
2022-10-18T14:46:30.167Z,19.63
2022-10-18T14:49:01.983Z,19.56
2022-10-18T14:51:34.778Z,19.47
2022-10-18T14:54:03.254Z,19.31
2022-10-18T14:56:36.838Z,19.19
2022-10-18T14:59:11.805Z,19.11
2022-10-18T15:01:39.629Z,19.04
2022-10-18T15:04:11.666Z,18.97
2022-10-18T15:06:43.825Z,18.91
2022-10-18T15:09:15.898Z,18.84
2022-10-18T15:11:45.312Z,18.78
2022-10-18T15:14:19.714Z,18.72
2022-10-18T15:16:50.450Z,18.63
2022-10-18T15:19:18.080Z,18.58
2022-10-18T15:22:19.855Z,18.51
2022-10-18T15:24:44.440Z,18.42
2022-10-18T15:27:21.904Z,18.37
2022-10-18T15:29:50.231Z,18.30
2022-10-18T15:32:31.706Z,18.26
2022-10-18T15:35:09.939Z,18.20
2022-10-18T15:37:44.034Z,18.12
2022-10-18T15:40:23.776Z,18.02
2022-10-18T15:42:53.992Z,17.92
2022-10-18T15:45:24.950Z,17.81
2022-10-18T15:48:09.436Z,17.73
2022-10-18T15:50:42.753Z,17.66
2022-10-18T15:53:42.791Z,17.64
2022-10-18T15:56:13.840Z,17.49
2022-10-18T15:58:46.827Z,17.34
2022-10-18T16:01:37.280Z,17.30
2022-10-18T16:04:12.152Z,17.25
2022-10-18T16:06:40.079Z,17.13
2022-10-18T16:09:15.684Z,17.00
2022-10-18T16:11:43.952Z,16.91
2022-10-18T16:14:11.656Z,16.89
2022-10-18T16:16:40.499Z,16.85
2022-10-18T16:19:13.691Z,16.85
2022-10-18T16:21:42.586Z,16.88
2022-10-18T16:24:10.758Z,16.81
2022-10-18T16:26:38.738Z,16.79
2022-10-18T16:29:07.524Z,16.73
2022-10-18T16:31:35.404Z,16.67
2022-10-18T16:34:03.273Z,16.62
2022-10-18T16:36:33.405Z,16.58
2022-10-18T16:39:10.439Z,16.60
2022-10-18T16:41:38.238Z,16.66
2022-10-18T16:44:06.172Z,16.65
2022-10-18T16:46:35.524Z,16.70
2022-10-18T16:49:05.030Z,16.76
2022-10-18T16:51:33.203Z,16.73
2022-10-18T16:54:00.899Z,16.71
2022-10-18T16:56:31.718Z,16.67
2022-10-18T16:59:00.505Z,16.67
2022-10-18T17:01:28.460Z,16.67
2022-10-18T17:03:56.266Z,16.69
2022-10-18T17:06:29.483Z,16.63
2022-10-18T17:08:57.978Z,16.65
2022-10-18T17:11:28.372Z,16.67
2022-10-18T17:13:56.226Z,16.62
2022-10-18T17:19:04.851Z,16.54
2022-10-18T17:21:33.688Z,16.52
2022-10-18T17:24:04.392Z,16.50
2022-10-18T17:26:33.283Z,16.45
2022-10-18T17:29:06.267Z,16.28
2022-10-18T17:31:35.723Z,16.17
2022-10-18T17:34:04.471Z,16.08
2022-10-18T17:36:33.553Z,16.04
2022-10-18T17:39:01.635Z,16.04
2022-10-18T17:41:29.522Z,15.96
2022-10-18T17:43:57.395Z,15.85
2022-10-18T17:46:25.212Z,15.84
2022-10-18T17:48:53.761Z,15.82
2022-10-18T17:51:22.536Z,15.82
2022-10-18T17:53:50.410Z,15.80
2022-10-18T17:56:18.176Z,15.73
2022-10-18T17:58:49.857Z,15.67
2022-10-18T18:01:20.968Z,15.64
2022-10-18T18:03:48.954Z,15.62
2022-10-18T18:06:31.426Z,15.58
2022-10-18T18:09:01.999Z,15.56
2022-10-18T18:11:29.962Z,15.57
2022-10-18T18:13:58.655Z,15.56
2022-10-18T18:16:28.621Z,15.61
2022-10-18T18:18:58.284Z,15.66
2022-10-18T18:21:27.496Z,15.67
2022-10-18T18:23:55.461Z,15.67
2022-10-18T18:26:23.945Z,15.65
2022-10-18T18:28:52.608Z,15.68
2022-10-18T18:31:23.569Z,15.73
2022-10-18T18:33:52.966Z,15.68
2022-10-18T18:36:21.772Z,15.54
2022-10-18T18:38:55.493Z,15.52
2022-10-18T18:41:27.043Z,15.59
2022-10-18T18:43:54.686Z,15.64
2022-10-18T18:46:23.431Z,15.67
2022-10-18T18:48:51.551Z,15.69
2022-10-18T18:51:21.996Z,15.69
2022-10-18T18:53:49.681Z,15.67
2022-10-18T18:56:25.111Z,15.67
2022-10-18T18:58:54.311Z,15.63
2022-10-18T19:01:25.222Z,15.60
2022-10-18T19:03:55.475Z,15.63
2022-10-18T19:06:29.587Z,15.58
2022-10-18T19:09:01.559Z,15.55
2022-10-18T19:11:33.531Z,15.52
2022-10-18T19:14:02.400Z,15.52
2022-10-18T19:16:34.469Z,15.50
2022-10-18T19:19:05.374Z,15.48
2022-10-18T19:21:39.211Z,15.52
2022-10-18T19:24:07.924Z,15.56
2022-10-18T19:26:50.619Z,15.58
2022-10-18T19:29:24.660Z,15.56
2022-10-18T19:31:55.363Z,15.53
2022-10-18T19:34:25.574Z,15.49
2022-10-18T19:36:53.270Z,15.42
2022-10-18T19:39:23.774Z,15.40
2022-10-18T19:41:58.005Z,15.36
2022-10-18T19:44:29.055Z,15.31
2022-10-18T19:46:57.845Z,15.31
2022-10-18T19:49:26.138Z,15.29
2022-10-18T19:51:54.305Z,15.29
2022-10-18T19:54:22.177Z,15.31
2022-10-18T19:56:49.940Z,15.30
2022-10-18T19:59:18.227Z,15.33
2022-10-18T20:01:46.007Z,15.35
2022-10-18T20:04:14.467Z,15.31
2022-10-18T20:06:43.274Z,15.27
2022-10-18T20:09:14.823Z,15.24
2022-10-18T20:11:45.767Z,15.27
2022-10-18T20:14:13.584Z,15.33
2022-10-18T20:16:41.410Z,15.29
2022-10-18T20:19:10.417Z,15.28
2022-10-18T20:21:39.509Z,15.30
2022-10-18T20:24:07.887Z,15.32
2022-10-18T20:26:36.008Z,15.34
2022-10-18T20:29:04.187Z,15.27
2022-10-18T20:31:35.772Z,15.27
2022-10-18T20:34:07.160Z,15.26
2022-10-18T20:36:35.839Z,15.20
2022-10-18T20:39:05.106Z,15.16
2022-10-18T20:41:41.057Z,15.14
2022-10-18T20:44:13.638Z,15.13
2022-10-18T20:46:42.360Z,15.13
2022-10-18T20:49:15.329Z,15.13
2022-10-18T20:51:43.265Z,15.11
2022-10-18T20:54:12.037Z,15.06
2022-10-18T20:56:39.776Z,15.05
2022-10-18T20:59:10.117Z,15.05
2022-10-18T21:01:39.474Z,15.01
2022-10-18T21:04:10.458Z,14.98
2022-10-18T21:06:41.999Z,14.93
2022-10-18T21:09:18.790Z,14.93
2022-10-18T21:11:49.550Z,14.92
2022-10-18T21:14:20.084Z,14.93
2022-10-18T21:16:48.876Z,14.91
2022-10-18T21:19:26.407Z,14.86
2022-10-18T21:21:56.996Z,14.88
2022-10-18T21:24:25.917Z,14.90
2022-10-18T21:26:54.896Z,14.93
2022-10-18T21:29:27.035Z,14.89
2022-10-18T21:31:58.092Z,14.85
2022-10-18T21:34:26.361Z,14.82
2022-10-18T21:36:54.247Z,14.79
2022-10-18T21:41:56.811Z,14.79
2022-10-18T21:44:24.802Z,14.79
2022-10-18T21:46:52.521Z,14.79
2022-10-18T21:49:23.368Z,14.80
2022-10-18T21:51:51.175Z,14.79
2022-10-18T21:54:19.077Z,14.79
2022-10-18T21:56:46.818Z,14.80
2022-10-18T21:59:14.534Z,14.81
2022-10-18T22:01:44.299Z,14.79
2022-10-18T22:04:21.552Z,14.74
2022-10-18T22:06:50.078Z,14.74
2022-10-18T22:09:18.357Z,14.74
2022-10-18T22:11:50.715Z,14.71
2022-10-18T22:14:18.477Z,14.72
2022-10-18T22:16:46.364Z,14.72
2022-10-18T22:19:14.441Z,14.70
2022-10-18T22:21:42.515Z,14.73
2022-10-18T22:24:10.592Z,14.72
2022-10-18T22:26:40.666Z,14.70
2022-10-18T22:29:20.353Z,14.68
2022-10-18T22:31:50.554Z,14.68
2022-10-18T22:34:24.014Z,14.69
2022-10-18T22:36:51.747Z,14.71
2022-10-18T22:39:19.927Z,14.70
2022-10-18T22:41:47.890Z,14.70
2022-10-18T22:44:15.769Z,14.70
2022-10-18T22:46:43.707Z,14.68
2022-10-18T22:49:12.223Z,14.68
2022-10-18T22:51:40.922Z,14.69
2022-10-18T22:54:08.981Z,14.63
2022-10-18T22:56:36.862Z,14.58
2022-10-18T22:59:04.732Z,14.54
2022-10-18T23:01:32.429Z,14.52
2022-10-18T23:04:01.330Z,14.50
2022-10-18T23:06:31.758Z,14.50
2022-10-18T23:09:01.952Z,14.45
2022-10-18T23:11:29.921Z,14.42
2022-10-18T23:13:57.689Z,14.39
2022-10-18T23:16:25.550Z,14.41
2022-10-18T23:18:55.574Z,14.38
2022-10-18T23:21:25.825Z,14.33
2022-10-18T23:23:55.306Z,14.32
2022-10-18T23:26:25.827Z,14.30
2022-10-18T23:28:54.431Z,14.28
2022-10-18T23:31:24.075Z,14.29
2022-10-18T23:33:54.130Z,14.32
2022-10-18T23:36:22.765Z,14.32
2022-10-18T23:38:50.991Z,14.33
2022-10-18T23:41:19.092Z,14.29
2022-10-18T23:43:47.781Z,14.29
2022-10-18T23:46:17.416Z,14.30
2022-10-18T23:48:46.508Z,14.23
2022-10-18T23:51:15.156Z,14.14
2022-10-18T23:53:42.984Z,14.10
2022-10-18T23:56:15.841Z,14.11
2022-10-18T23:58:44.952Z,14.09
